sensor_id;sensor_type;location;lat;lon;timestamp;P1;durP1;ratioP1;P2;durP2;ratioP2
57231;SDS011;43488;46.934;8.276;2022-07-23T00:01:41;682.92;;;460.75;;
57231;SDS011;43488;46.934;8.276;2022-07-23T00:04:08;681.95;;;458.55;;
57231;SDS011;43488;46.934;8.276;2022-07-23T00:06:35;675.53;;;386.33;;
57231;SDS011;43488;46.934;8.276;2022-07-23T00:09:02;670.58;;;388.58;;
57231;SDS011;43488;46.934;8.276;2022-07-23T00:11:30;679.72;;;454.02;;
57231;SDS011;43488;46.934;8.276;2022-07-23T00:13:57;680.08;;;461.10;;
57231;SDS011;43488;46.934;8.276;2022-07-23T00:16:25;669.80;;;380.70;;
57231;SDS011;43488;46.934;8.276;2022-07-23T00:18:52;678.97;;;451.95;;
57231;SDS011;43488;46.934;8.276;2022-07-23T00:21:19;681.00;;;453.58;;
57231;SDS011;43488;46.934;8.276;2022-07-23T00:23:46;676.60;;;391.48;;
57231;SDS011;43488;46.934;8.276;2022-07-23T00:26:14;678.05;;;447.67;;
57231;SDS011;43488;46.934;8.276;2022-07-23T00:28:41;677.88;;;452.00;;
57231;SDS011;43488;46.934;8.276;2022-07-23T00:31:09;676.92;;;394.17;;
57231;SDS011;43488;46.934;8.276;2022-07-23T00:33:36;670.67;;;388.15;;
57231;SDS011;43488;46.934;8.276;2022-07-23T00:36:13;680.97;;;454.45;;
57231;SDS011;43488;46.934;8.276;2022-07-23T00:38:41;677.90;;;457.25;;
57231;SDS011;43488;46.934;8.276;2022-07-23T00:41:09;679.53;;;450.65;;
57231;SDS011;43488;46.934;8.276;2022-07-23T00:43:36;676.60;;;390.67;;
57231;SDS011;43488;46.934;8.276;2022-07-23T00:46:06;669.22;;;379.38;;
57231;SDS011;43488;46.934;8.276;2022-07-23T00:48:33;679.05;;;454.30;;
57231;SDS011;43488;46.934;8.276;2022-07-23T00:51:00;672.00;;;392.33;;
57231;SDS011;43488;46.934;8.276;2022-07-23T00:53:28;669.35;;;385.95;;
57231;SDS011;43488;46.934;8.276;2022-07-23T00:55:57;672.30;;;382.30;;
57231;SDS011;43488;46.934;8.276;2022-07-23T00:58:25;672.10;;;385.25;;
57231;SDS011;43488;46.934;8.276;2022-07-23T01:00:55;669.80;;;378.70;;
57231;SDS011;43488;46.934;8.276;2022-07-23T01:03:23;674.72;;;390.05;;
57231;SDS011;43488;46.934;8.276;2022-07-23T01:05:51;668.00;;;377.13;;
57231;SDS011;43488;46.934;8.276;2022-07-23T01:08:19;675.95;;;393.88;;
57231;SDS011;43488;46.934;8.276;2022-07-23T01:10:47;668.83;;;380.55;;
57231;SDS011;43488;46.934;8.276;2022-07-23T01:13:15;674.83;;;389.63;;
57231;SDS011;43488;46.934;8.276;2022-07-23T01:15:43;675.10;;;387.98;;
57231;SDS011;43488;46.934;8.276;2022-07-23T01:18:10;673.63;;;443.35;;
57231;SDS011;43488;46.934;8.276;2022-07-23T01:20:39;673.38;;;445.88;;
57231;SDS011;43488;46.934;8.276;2022-07-23T01:23:07;675.38;;;452.10;;
57231;SDS011;43488;46.934;8.276;2022-07-23T01:25:34;675.47;;;443.88;;
57231;SDS011;43488;46.934;8.276;2022-07-23T01:28:02;663.85;;;375.30;;
57231;SDS011;43488;46.934;8.276;2022-07-23T01:30:30;675.95;;;442.75;;
57231;SDS011;43488;46.934;8.276;2022-07-23T01:32:59;675.03;;;452.13;;
57231;SDS011;43488;46.934;8.276;2022-07-23T01:35:28;675.47;;;442.33;;
57231;SDS011;43488;46.934;8.276;2022-07-23T01:37:55;672.63;;;446.05;;
57231;SDS011;43488;46.934;8.276;2022-07-23T01:40:23;677.33;;;452.23;;
57231;SDS011;43488;46.934;8.276;2022-07-23T01:42:51;677.03;;;457.70;;
57231;SDS011;43488;46.934;8.276;2022-07-23T01:45:19;675.22;;;445.63;;
57231;SDS011;43488;46.934;8.276;2022-07-23T01:47:47;675.03;;;454.10;;
57231;SDS011;43488;46.934;8.276;2022-07-23T01:50:15;665.25;;;380.23;;
57231;SDS011;43488;46.934;8.276;2022-07-23T01:52:43;674.50;;;450.77;;
57231;SDS011;43488;46.934;8.276;2022-07-23T01:55:11;676.88;;;449.35;;
57231;SDS011;43488;46.934;8.276;2022-07-23T01:57:38;673.05;;;446.95;;
57231;SDS011;43488;46.934;8.276;2022-07-23T02:00:06;675.40;;;447.88;;
57231;SDS011;43488;46.934;8.276;2022-07-23T02:02:34;665.30;;;383.52;;
57231;SDS011;43488;46.934;8.276;2022-07-23T02:05:01;677.22;;;446.83;;
57231;SDS011;43488;46.934;8.276;2022-07-23T02:07:28;674.30;;;448.50;;
57231;SDS011;43488;46.934;8.276;2022-07-23T02:09:55;665.55;;;378.00;;
57231;SDS011;43488;46.934;8.276;2022-07-23T02:12:23;672.47;;;390.33;;
57231;SDS011;43488;46.934;8.276;2022-07-23T02:14:51;675.38;;;442.25;;
57231;SDS011;43488;46.934;8.276;2022-07-23T02:17:19;666.30;;;380.50;;
57231;SDS011;43488;46.934;8.276;2022-07-23T02:19:46;669.88;;;382.25;;
57231;SDS011;43488;46.934;8.276;2022-07-23T02:22:14;670.40;;;385.95;;
57231;SDS011;43488;46.934;8.276;2022-07-23T02:24:41;675.35;;;445.08;;
57231;SDS011;43488;46.934;8.276;2022-07-23T02:27:08;674.53;;;449.00;;
57231;SDS011;43488;46.934;8.276;2022-07-23T02:29:37;672.28;;;386.02;;
57231;SDS011;43488;46.934;8.276;2022-07-23T02:32:05;676.50;;;453.80;;
57231;SDS011;43488;46.934;8.276;2022-07-23T02:34:34;674.08;;;445.58;;
57231;SDS011;43488;46.934;8.276;2022-07-23T02:37:01;663.38;;;380.67;;
57231;SDS011;43488;46.934;8.276;2022-07-23T02:39:29;675.50;;;450.52;;
57231;SDS011;43488;46.934;8.276;2022-07-23T02:41:58;671.28;;;389.63;;
57231;SDS011;43488;46.934;8.276;2022-07-23T02:44:25;664.75;;;379.48;;
57231;SDS011;43488;46.934;8.276;2022-07-23T02:46:53;675.85;;;455.15;;
57231;SDS011;43488;46.934;8.276;2022-07-23T02:49:21;670.30;;;382.45;;
57231;SDS011;43488;46.934;8.276;2022-07-23T02:51:49;672.97;;;450.38;;
57231;SDS011;43488;46.934;8.276;2022-07-23T02:54:16;676.50;;;444.58;;
57231;SDS011;43488;46.934;8.276;2022-07-23T02:56:44;671.90;;;447.85;;
57231;SDS011;43488;46.934;8.276;2022-07-23T02:59:11;663.63;;;379.00;;
57231;SDS011;43488;46.934;8.276;2022-07-23T03:01:38;669.83;;;385.60;;
57231;SDS011;43488;46.934;8.276;2022-07-23T03:04:06;674.63;;;446.15;;
57231;SDS011;43488;46.934;8.276;2022-07-23T03:06:33;674.90;;;451.08;;
57231;SDS011;43488;46.934;8.276;2022-07-23T03:09:01;665.65;;;375.85;;
57231;SDS011;43488;46.934;8.276;2022-07-23T03:11:29;676.03;;;455.05;;
57231;SDS011;43488;46.934;8.276;2022-07-23T03:13:56;674.15;;;446.92;;
57231;SDS011;43488;46.934;8.276;2022-07-23T03:16:24;673.97;;;449.63;;
57231;SDS011;43488;46.934;8.276;2022-07-23T03:18:51;663.05;;;378.10;;
57231;SDS011;43488;46.934;8.276;2022-07-23T03:21:18;665.17;;;384.88;;
57231;SDS011;43488;46.934;8.276;2022-07-23T03:23:48;669.60;;;379.38;;
57231;SDS011;43488;46.934;8.276;2022-07-23T03:26:16;667.88;;;381.00;;
57231;SDS011;43488;46.934;8.276;2022-07-23T03:28:44;669.00;;;378.20;;
57231;SDS011;43488;46.934;8.276;2022-07-23T03:31:12;669.95;;;388.98;;
57231;SDS011;43488;46.934;8.276;2022-07-23T03:33:39;664.03;;;375.67;;
57231;SDS011;43488;46.934;8.276;2022-07-23T03:36:08;663.35;;;379.38;;
57231;SDS011;43488;46.934;8.276;2022-07-23T03:38:36;662.85;;;374.05;;
57231;SDS011;43488;46.934;8.276;2022-07-23T03:41:04;669.05;;;386.92;;
57231;SDS011;43488;46.934;8.276;2022-07-23T03:43:32;669.72;;;440.88;;
57231;SDS011;43488;46.934;8.276;2022-07-23T03:46:00;663.60;;;380.90;;
57231;SDS011;43488;46.934;8.276;2022-07-23T03:48:28;675.53;;;454.05;;
57231;SDS011;43488;46.934;8.276;2022-07-23T03:50:57;672.88;;;455.92;;
57231;SDS011;43488;46.934;8.276;2022-07-23T03:53:24;665.05;;;381.58;;
57231;SDS011;43488;46.934;8.276;2022-07-23T03:55:52;667.38;;;384.00;;
57231;SDS011;43488;46.934;8.276;2022-07-23T03:58:19;667.13;;;380.25;;
57231;SDS011;43488;46.934;8.276;2022-07-23T04:00:46;671.00;;;450.70;;
57231;SDS011;43488;46.934;8.276;2022-07-23T04:03:13;660.17;;;368.10;;
57231;SDS011;43488;46.934;8.276;2022-07-23T04:05:42;671.72;;;449.90;;
57231;SDS011;43488;46.934;8.276;2022-07-23T04:08:10;669.63;;;383.73;;
57231;SDS011;43488;46.934;8.276;2022-07-23T04:10:37;662.03;;;384.30;;
57231;SDS011;43488;46.934;8.276;2022-07-23T04:13:04;667.35;;;377.88;;
57231;SDS011;43488;46.934;8.276;2022-07-23T04:15:32;666.85;;;380.77;;
57231;SDS011;43488;46.934;8.276;2022-07-23T04:17:59;662.05;;;379.92;;
57231;SDS011;43488;46.934;8.276;2022-07-23T04:20:27;668.28;;;387.92;;
57231;SDS011;43488;46.934;8.276;2022-07-23T04:22:54;670.67;;;440.08;;
57231;SDS011;43488;46.934;8.276;2022-07-23T04:25:22;670.83;;;443.85;;
57231;SDS011;43488;46.934;8.276;2022-07-23T04:27:49;659.15;;;370.65;;
57231;SDS011;43488;46.934;8.276;2022-07-23T04:30:17;672.67;;;454.88;;
57231;SDS011;43488;46.934;8.276;2022-07-23T04:32:45;661.80;;;373.67;;
57231;SDS011;43488;46.934;8.276;2022-07-23T04:35:12;667.50;;;443.30;;
57231;SDS011;43488;46.934;8.276;2022-07-23T04:37:40;661.40;;;375.10;;
57231;SDS011;43488;46.934;8.276;2022-07-23T04:40:07;664.95;;;388.45;;
57231;SDS011;43488;46.934;8.276;2022-07-23T04:42:35;668.83;;;379.52;;
57231;SDS011;43488;46.934;8.276;2022-07-23T04:45:03;662.50;;;377.85;;
57231;SDS011;43488;46.934;8.276;2022-07-23T04:47:31;674.13;;;450.98;;
57231;SDS011;43488;46.934;8.276;2022-07-23T04:49:58;667.30;;;387.08;;
57231;SDS011;43488;46.934;8.276;2022-07-23T04:52:27;670.97;;;440.80;;
57231;SDS011;43488;46.934;8.276;2022-07-23T04:54:56;663.05;;;380.02;;
57231;SDS011;43488;46.934;8.276;2022-07-23T04:57:23;661.55;;;374.75;;
57231;SDS011;43488;46.934;8.276;2022-07-23T04:59:50;672.28;;;451.40;;
57231;SDS011;43488;46.934;8.276;2022-07-23T05:02:18;662.55;;;379.98;;
57231;SDS011;43488;46.934;8.276;2022-07-23T05:04:45;669.40;;;441.10;;
57231;SDS011;43488;46.934;8.276;2022-07-23T05:07:12;671.00;;;448.92;;
57231;SDS011;43488;46.934;8.276;2022-07-23T05:09:40;672.17;;;453.58;;
57231;SDS011;43488;46.934;8.276;2022-07-23T05:12:12;671.78;;;444.63;;
57231;SDS011;43488;46.934;8.276;2022-07-23T05:14:40;667.42;;;386.67;;
57231;SDS011;43488;46.934;8.276;2022-07-23T05:17:08;672.03;;;447.67;;
57231;SDS011;43488;46.934;8.276;2022-07-23T05:19:36;668.55;;;388.88;;
57231;SDS011;43488;46.934;8.276;2022-07-23T05:22:04;660.92;;;374.38;;
57231;SDS011;43488;46.934;8.276;2022-07-23T05:24:32;667.10;;;386.85;;
57231;SDS011;43488;46.934;8.276;2022-07-23T05:26:59;670.95;;;450.33;;
57231;SDS011;43488;46.934;8.276;2022-07-23T05:29:27;666.70;;;386.05;;
57231;SDS011;43488;46.934;8.276;2022-07-23T05:31:54;666.30;;;440.75;;
57231;SDS011;43488;46.934;8.276;2022-07-23T05:34:21;666.30;;;386.88;;
57231;SDS011;43488;46.934;8.276;2022-07-23T05:36:49;671.83;;;452.40;;
57231;SDS011;43488;46.934;8.276;2022-07-23T05:39:17;666.67;;;384.60;;
57231;SDS011;43488;46.934;8.276;2022-07-23T05:41:45;669.17;;;441.85;;
57231;SDS011;43488;46.934;8.276;2022-07-23T05:44:12;666.33;;;385.95;;
57231;SDS011;43488;46.934;8.276;2022-07-23T05:46:40;658.60;;;376.60;;
57231;SDS011;43488;46.934;8.276;2022-07-23T05:49:07;672.47;;;459.67;;
57231;SDS011;43488;46.934;8.276;2022-07-23T05:51:35;662.20;;;380.15;;
57231;SDS011;43488;46.934;8.276;2022-07-23T05:54:03;668.38;;;452.08;;
57231;SDS011;43488;46.934;8.276;2022-07-23T05:56:31;668.83;;;445.02;;
57231;SDS011;43488;46.934;8.276;2022-07-23T05:58:58;669.20;;;452.00;;
57231;SDS011;43488;46.934;8.276;2022-07-23T06:01:27;665.92;;;382.30;;
57231;SDS011;43488;46.934;8.276;2022-07-23T06:03:55;659.25;;;381.55;;
57231;SDS011;43488;46.934;8.276;2022-07-23T06:06:23;671.50;;;451.58;;
57231;SDS011;43488;46.934;8.276;2022-07-23T06:08:51;670.13;;;457.45;;
57231;SDS011;43488;46.934;8.276;2022-07-23T06:11:19;665.00;;;379.33;;
57231;SDS011;43488;46.934;8.276;2022-07-23T06:13:47;668.88;;;449.23;;
57231;SDS011;43488;46.934;8.276;2022-07-23T06:16:15;662.55;;;383.35;;
57231;SDS011;43488;46.934;8.276;2022-07-23T06:18:42;667.72;;;451.13;;
57231;SDS011;43488;46.934;8.276;2022-07-23T06:21:10;668.17;;;445.38;;
57231;SDS011;43488;46.934;8.276;2022-07-23T06:23:37;667.13;;;448.17;;
57231;SDS011;43488;46.934;8.276;2022-07-23T06:26:04;665.28;;;383.83;;
57231;SDS011;43488;46.934;8.276;2022-07-23T06:28:32;661.55;;;386.70;;
57231;SDS011;43488;46.934;8.276;2022-07-23T06:30:59;666.85;;;443.48;;
57231;SDS011;43488;46.934;8.276;2022-07-23T06:33:27;665.30;;;383.70;;
57231;SDS011;43488;46.934;8.276;2022-07-23T06:35:54;669.55;;;447.75;;
57231;SDS011;43488;46.934;8.276;2022-07-23T06:38:21;661.05;;;386.50;;
57231;SDS011;43488;46.934;8.276;2022-07-23T06:40:48;665.63;;;383.48;;
57231;SDS011;43488;46.934;8.276;2022-07-23T06:43:16;660.10;;;385.30;;
57231;SDS011;43488;46.934;8.276;2022-07-23T06:45:43;673.83;;;460.65;;
57231;SDS011;43488;46.934;8.276;2022-07-23T06:48:10;666.63;;;392.42;;
57231;SDS011;43488;46.934;8.276;2022-07-23T06:50:42;665.97;;;446.63;;
57231;SDS011;43488;46.934;8.276;2022-07-23T06:53:09;660.10;;;382.48;;
57231;SDS011;43488;46.934;8.276;2022-07-23T06:55:37;668.05;;;451.17;;
57231;SDS011;43488;46.934;8.276;2022-07-23T06:58:05;666.50;;;393.17;;
57231;SDS011;43488;46.934;8.276;2022-07-23T07:00:33;665.92;;;445.30;;
57231;SDS011;43488;46.934;8.276;2022-07-23T07:03:01;660.10;;;383.55;;
57231;SDS011;43488;46.934;8.276;2022-07-23T07:05:29;666.33;;;388.52;;
57231;SDS011;43488;46.934;8.276;2022-07-23T07:07:56;678.40;;;483.83;;
57231;SDS011;43488;46.934;8.276;2022-07-23T07:10:24;669.45;;;458.27;;
57231;SDS011;43488;46.934;8.276;2022-07-23T07:12:51;660.83;;;395.73;;
57231;SDS011;43488;46.934;8.276;2022-07-23T07:15:19;673.30;;;460.63;;
57231;SDS011;43488;46.934;8.276;2022-07-23T07:17:46;662.80;;;390.73;;
57231;SDS011;43488;46.934;8.276;2022-07-23T07:20:15;672.60;;;458.15;;
57231;SDS011;43488;46.934;8.276;2022-07-23T07:22:43;669.88;;;458.17;;
57231;SDS011;43488;46.934;8.276;2022-07-23T07:25:10;663.97;;;392.00;;
57231;SDS011;43488;46.934;8.276;2022-07-23T07:27:37;668.85;;;459.90;;
57231;SDS011;43488;46.934;8.276;2022-07-23T07:30:07;671.33;;;455.02;;
57231;SDS011;43488;46.934;8.276;2022-07-23T07:32:36;671.05;;;455.95;;
57231;SDS011;43488;46.934;8.276;2022-07-23T07:35:03;666.15;;;387.88;;
57231;SDS011;43488;46.934;8.276;2022-07-23T07:37:31;662.42;;;391.55;;
57231;SDS011;43488;46.934;8.276;2022-07-23T07:39:59;667.50;;;394.05;;
57231;SDS011;43488;46.934;8.276;2022-07-23T07:42:27;662.50;;;387.90;;
57231;SDS011;43488;46.934;8.276;2022-07-23T07:44:54;668.22;;;393.42;;
57231;SDS011;43488;46.934;8.276;2022-07-23T07:47:22;673.13;;;469.58;;
57231;SDS011;43488;46.934;8.276;2022-07-23T07:49:49;662.38;;;385.52;;
57231;SDS011;43488;46.934;8.276;2022-07-23T07:52:17;662.25;;;391.05;;
57231;SDS011;43488;46.934;8.276;2022-07-23T07:54:44;672.42;;;455.98;;
57231;SDS011;43488;46.934;8.276;2022-07-23T07:57:11;672.17;;;462.63;;
57231;SDS011;43488;46.934;8.276;2022-07-23T07:59:39;672.00;;;459.88;;
57231;SDS011;43488;46.934;8.276;2022-07-23T08:02:07;671.05;;;456.45;;
57231;SDS011;43488;46.934;8.276;2022-07-23T08:04:34;672.33;;;460.02;;
57231;SDS011;43488;46.934;8.276;2022-07-23T08:07:01;664.22;;;398.02;;
57231;SDS011;43488;46.934;8.276;2022-07-23T08:09:30;672.03;;;458.60;;
57231;SDS011;43488;46.934;8.276;2022-07-23T08:11:58;670.05;;;454.25;;
57231;SDS011;43488;46.934;8.276;2022-07-23T08:14:25;664.45;;;400.48;;
57231;SDS011;43488;46.934;8.276;2022-07-23T08:16:53;662.00;;;414.88;;
57231;SDS011;43488;46.934;8.276;2022-07-23T08:19:20;674.65;;;471.35;;
57231;SDS011;43488;46.934;8.276;2022-07-23T08:21:47;669.58;;;406.13;;
57231;SDS011;43488;46.934;8.276;2022-07-23T08:24:15;669.30;;;405.90;;
57231;SDS011;43488;46.934;8.276;2022-07-23T08:26:42;672.55;;;464.95;;
57231;SDS011;43488;46.934;8.276;2022-07-23T08:29:09;666.25;;;462.25;;
57231;SDS011;43488;46.934;8.276;2022-07-23T08:31:37;667.97;;;410.20;;
57231;SDS011;43488;46.934;8.276;2022-07-23T08:34:04;670.30;;;413.05;;
57231;SDS011;43488;46.934;8.276;2022-07-23T08:36:31;674.55;;;464.35;;
57231;SDS011;43488;46.934;8.276;2022-07-23T08:39:00;670.20;;;464.80;;
57231;SDS011;43488;46.934;8.276;2022-07-23T08:41:31;666.45;;;415.05;;
57231;SDS011;43488;46.934;8.276;2022-07-23T08:43:59;668.05;;;477.05;;
57231;SDS011;43488;46.934;8.276;2022-07-23T08:46:27;663.90;;;410.27;;
57231;SDS011;43488;46.934;8.276;2022-07-23T08:48:55;668.78;;;451.55;;
57231;SDS011;43488;46.934;8.276;2022-07-23T08:51:25;668.83;;;457.42;;
57231;SDS011;43488;46.934;8.276;2022-07-23T08:53:55;674.08;;;463.45;;
57231;SDS011;43488;46.934;8.276;2022-07-23T08:56:24;664.97;;;417.00;;
57231;SDS011;43488;46.934;8.276;2022-07-23T08:58:52;662.83;;;401.13;;
57231;SDS011;43488;46.934;8.276;2022-07-23T09:01:21;666.53;;;416.00;;
57231;SDS011;43488;46.934;8.276;2022-07-23T09:03:48;661.30;;;408.15;;
57231;SDS011;43488;46.934;8.276;2022-07-23T09:06:16;669.45;;;472.98;;
57231;SDS011;43488;46.934;8.276;2022-07-23T09:08:44;669.38;;;471.85;;
57231;SDS011;43488;46.934;8.276;2022-07-23T09:11:13;664.50;;;422.08;;
57231;SDS011;43488;46.934;8.276;2022-07-23T09:16:17;670.90;;;478.25;;
57231;SDS011;43488;46.934;8.276;2022-07-23T09:19:00;668.42;;;421.20;;
57231;SDS011;43488;46.934;8.276;2022-07-23T09:26:42;664.53;;;435.02;;
57231;SDS011;43488;46.934;8.276;2022-07-23T09:29:18;660.42;;;421.33;;
57231;SDS011;43488;46.934;8.276;2022-07-23T09:31:52;666.40;;;475.98;;
57231;SDS011;43488;46.934;8.276;2022-07-23T09:34:32;668.85;;;434.92;;
57231;SDS011;43488;46.934;8.276;2022-07-23T09:37:09;661.40;;;431.98;;
57231;SDS011;43488;46.934;8.276;2022-07-23T09:39:45;663.22;;;419.27;;
57231;SDS011;43488;46.934;8.276;2022-07-23T09:42:19;661.88;;;426.30;;
57231;SDS011;43488;46.934;8.276;2022-07-23T09:44:55;660.40;;;423.00;;
57231;SDS011;43488;46.934;8.276;2022-07-23T09:47:29;656.47;;;423.40;;
57231;SDS011;43488;46.934;8.276;2022-07-23T09:50:03;665.97;;;470.70;;
57231;SDS011;43488;46.934;8.276;2022-07-23T09:52:42;663.65;;;474.50;;
57231;SDS011;43488;46.934;8.276;2022-07-23T09:55:14;661.30;;;430.40;;
57231;SDS011;43488;46.934;8.276;2022-07-23T09:57:43;662.25;;;489.83;;
57231;SDS011;43488;46.934;8.276;2022-07-23T10:00:13;655.40;;;423.25;;
57231;SDS011;43488;46.934;8.276;2022-07-23T10:02:40;659.33;;;470.17;;
57231;SDS011;43488;46.934;8.276;2022-07-23T10:05:08;662.75;;;439.98;;
57231;SDS011;43488;46.934;8.276;2022-07-23T10:07:39;654.80;;;433.02;;
57231;SDS011;43488;46.934;8.276;2022-07-23T10:10:08;658.58;;;471.63;;
57231;SDS011;43488;46.934;8.276;2022-07-23T10:12:38;655.95;;;469.45;;
57231;SDS011;43488;46.934;8.276;2022-07-23T10:15:17;656.50;;;433.90;;
57231;SDS011;43488;46.934;8.276;2022-07-23T10:17:46;656.38;;;437.95;;
57231;SDS011;43488;46.934;8.276;2022-07-23T10:20:15;660.50;;;472.35;;
57231;SDS011;43488;46.934;8.276;2022-07-23T10:28:20;662.60;;;448.77;;
57231;SDS011;43488;46.934;8.276;2022-07-23T10:37:22;661.83;;;480.17;;
57231;SDS011;43488;46.934;8.276;2022-07-23T10:40:08;655.43;;;433.70;;
57231;SDS011;43488;46.934;8.276;2022-07-23T10:42:45;657.38;;;430.48;;
57231;SDS011;43488;46.934;8.276;2022-07-23T10:45:33;658.78;;;477.00;;
57231;SDS011;43488;46.934;8.276;2022-07-23T10:48:13;659.33;;;477.33;;
57231;SDS011;43488;46.934;8.276;2022-07-23T10:51:06;656.08;;;440.60;;
57231;SDS011;43488;46.934;8.276;2022-07-23T10:53:58;655.75;;;469.33;;
57231;SDS011;43488;46.934;8.276;2022-07-23T10:59:23;651.55;;;477.80;;
57231;SDS011;43488;46.934;8.276;2022-07-23T11:01:51;653.58;;;482.90;;
57231;SDS011;43488;46.934;8.276;2022-07-23T11:04:20;652.65;;;474.33;;
57231;SDS011;43488;46.934;8.276;2022-07-23T11:07:18;652.22;;;440.42;;
57231;SDS011;43488;46.934;8.276;2022-07-23T11:09:46;655.50;;;479.17;;
57231;SDS011;43488;46.934;8.276;2022-07-23T11:17:57;649.05;;;444.30;;
57231;SDS011;43488;46.934;8.276;2022-07-23T11:20:26;647.45;;;481.15;;
57231;SDS011;43488;46.934;8.276;2022-07-23T11:22:55;648.10;;;484.52;;
57231;SDS011;43488;46.934;8.276;2022-07-23T11:27:54;650.90;;;447.33;;
57231;SDS011;43488;46.934;8.276;2022-07-23T11:30:44;646.95;;;438.58;;
57231;SDS011;43488;46.934;8.276;2022-07-23T11:35:46;650.88;;;443.40;;
57231;SDS011;43488;46.934;8.276;2022-07-23T11:38:26;646.67;;;444.65;;
57231;SDS011;43488;46.934;8.276;2022-07-23T11:40:56;649.63;;;448.73;;
57231;SDS011;43488;46.934;8.276;2022-07-23T11:45:58;648.20;;;437.60;;
57231;SDS011;43488;46.934;8.276;2022-07-23T11:48:27;633.47;;;441.30;;
57231;SDS011;43488;46.934;8.276;2022-07-23T11:50:57;630.23;;;489.17;;
57231;SDS011;43488;46.934;8.276;2022-07-23T11:53:26;628.45;;;498.30;;
57231;SDS011;43488;46.934;8.276;2022-07-23T11:58:38;623.35;;;463.70;;
57231;SDS011;43488;46.934;8.276;2022-07-23T12:01:06;638.28;;;417.15;;
57231;SDS011;43488;46.934;8.276;2022-07-23T12:03:33;616.35;;;447.75;;
57231;SDS011;43488;46.934;8.276;2022-07-23T12:06:00;633.10;;;409.23;;
57231;SDS011;43488;46.934;8.276;2022-07-23T12:08:28;618.25;;;452.50;;
57231;SDS011;43488;46.934;8.276;2022-07-23T12:10:56;630.38;;;417.75;;
57231;SDS011;43488;46.934;8.276;2022-07-23T12:13:24;618.25;;;458.27;;
57231;SDS011;43488;46.934;8.276;2022-07-23T12:15:52;632.63;;;424.33;;
57231;SDS011;43488;46.934;8.276;2022-07-23T12:18:24;629.85;;;421.80;;
57231;SDS011;43488;46.934;8.276;2022-07-23T12:20:54;612.75;;;448.85;;
57231;SDS011;43488;46.934;8.276;2022-07-23T12:23:25;633.92;;;432.67;;
57231;SDS011;43488;46.934;8.276;2022-07-23T12:25:53;629.85;;;421.58;;
57231;SDS011;43488;46.934;8.276;2022-07-23T12:28:28;630.83;;;432.08;;
57231;SDS011;43488;46.934;8.276;2022-07-23T12:31:04;612.25;;;449.77;;
57231;SDS011;43488;46.934;8.276;2022-07-23T12:33:37;628.63;;;418.90;;
57231;SDS011;43488;46.934;8.276;2022-07-23T12:36:08;613.10;;;445.80;;
57231;SDS011;43488;46.934;8.276;2022-07-23T12:41:26;624.13;;;408.90;;
57231;SDS011;43488;46.934;8.276;2022-07-23T12:43:53;618.25;;;476.80;;
57231;SDS011;43488;46.934;8.276;2022-07-23T12:46:21;612.67;;;459.70;;
57231;SDS011;43488;46.934;8.276;2022-07-23T12:51:21;631.25;;;422.88;;
57231;SDS011;43488;46.934;8.276;2022-07-23T12:54:05;635.60;;;430.67;;
57231;SDS011;43488;46.934;8.276;2022-07-23T12:56:36;630.60;;;416.20;;
57231;SDS011;43488;46.934;8.276;2022-07-23T12:59:08;617.30;;;463.25;;
57231;SDS011;43488;46.934;8.276;2022-07-23T13:01:38;618.50;;;460.45;;
57231;SDS011;43488;46.934;8.276;2022-07-23T13:06:54;631.13;;;419.35;;
57231;SDS011;43488;46.934;8.276;2022-07-23T13:09:25;627.45;;;409.30;;
57231;SDS011;43488;46.934;8.276;2022-07-23T13:11:58;628.42;;;405.33;;
57231;SDS011;43488;46.934;8.276;2022-07-23T13:14:27;616.72;;;459.98;;
57231;SDS011;43488;46.934;8.276;2022-07-23T13:16:55;616.30;;;452.83;;
57231;SDS011;43488;46.934;8.276;2022-07-23T13:19:23;627.35;;;417.38;;
57231;SDS011;43488;46.934;8.276;2022-07-23T13:21:50;613.92;;;447.15;;
57231;SDS011;43488;46.934;8.276;2022-07-23T13:24:18;623.92;;;417.33;;
57231;SDS011;43488;46.934;8.276;2022-07-23T13:26:47;609.38;;;448.42;;
57231;SDS011;43488;46.934;8.276;2022-07-23T13:29:16;629.50;;;429.75;;
57231;SDS011;43488;46.934;8.276;2022-07-23T13:31:44;635.10;;;431.98;;
57231;SDS011;43488;46.934;8.276;2022-07-23T13:34:11;627.67;;;470.95;;
57231;SDS011;43488;46.934;8.276;2022-07-23T13:36:39;628.22;;;419.17;;
57231;SDS011;43488;46.934;8.276;2022-07-23T13:39:07;619.40;;;461.30;;
57231;SDS011;43488;46.934;8.276;2022-07-23T13:41:34;633.47;;;431.00;;
57231;SDS011;43488;46.934;8.276;2022-07-23T13:44:04;635.72;;;438.95;;
57231;SDS011;43488;46.934;8.276;2022-07-23T13:46:32;623.08;;;460.27;;
57231;SDS011;43488;46.934;8.276;2022-07-23T13:48:59;620.67;;;465.55;;
57231;SDS011;43488;46.934;8.276;2022-07-23T13:51:27;626.35;;;422.90;;
57231;SDS011;43488;46.934;8.276;2022-07-23T13:53:55;624.78;;;478.17;;
57231;SDS011;43488;46.934;8.276;2022-07-23T13:56:25;629.30;;;423.90;;
57231;SDS011;43488;46.934;8.276;2022-07-23T13:58:52;635.22;;;447.33;;
57231;SDS011;43488;46.934;8.276;2022-07-23T14:01:21;633.50;;;447.17;;
57231;SDS011;43488;46.934;8.276;2022-07-23T14:03:48;623.63;;;489.85;;
57231;SDS011;43488;46.934;8.276;2022-07-23T14:06:15;630.58;;;434.77;;
57231;SDS011;43488;46.934;8.276;2022-07-23T14:08:43;630.72;;;441.42;;
57231;SDS011;43488;46.934;8.276;2022-07-23T14:11:11;621.13;;;479.92;;
57231;SDS011;43488;46.934;8.276;2022-07-23T14:13:39;635.90;;;454.05;;
57231;SDS011;43488;46.934;8.276;2022-07-23T14:16:16;633.97;;;444.75;;
57231;SDS011;43488;46.934;8.276;2022-07-23T14:18:44;617.40;;;473.33;;
57231;SDS011;43488;46.934;8.276;2022-07-23T14:21:12;628.75;;;433.08;;
57231;SDS011;43488;46.934;8.276;2022-07-23T14:23:39;620.80;;;482.60;;
57231;SDS011;43488;46.934;8.276;2022-07-23T14:26:07;632.25;;;433.67;;
57231;SDS011;43488;46.934;8.276;2022-07-23T14:28:34;618.70;;;471.70;;
57231;SDS011;43488;46.934;8.276;2022-07-23T14:31:03;616.50;;;457.48;;
57231;SDS011;43488;46.934;8.276;2022-07-23T14:33:30;627.00;;;429.92;;
57231;SDS011;43488;46.934;8.276;2022-07-23T14:35:58;629.58;;;426.77;;
57231;SDS011;43488;46.934;8.276;2022-07-23T14:38:26;619.65;;;472.58;;
57231;SDS011;43488;46.934;8.276;2022-07-23T14:40:54;625.20;;;421.30;;
57231;SDS011;43488;46.934;8.276;2022-07-23T14:43:23;617.67;;;471.00;;
57231;SDS011;43488;46.934;8.276;2022-07-23T14:45:51;628.85;;;428.70;;
57231;SDS011;43488;46.934;8.276;2022-07-23T14:48:18;617.88;;;476.55;;
57231;SDS011;43488;46.934;8.276;2022-07-23T14:50:46;627.35;;;429.88;;
57231;SDS011;43488;46.934;8.276;2022-07-23T14:53:14;629.28;;;437.40;;